Time;durP1;ratioP1;P1;durP2;ratioP2;P2;SDS_P1;SDS_P2;PMS_P1;PMS_P2;Temp;Humidity;BMP_temperature;BMP_pressure;BME280_temperature;BME280_humidity;BME280_pressure;Samples;Min_cycle;Max_cycle;Signal;HPM_P1;HPM_P2
2022/04/11 00:00:42;;;;;;;10.23;3.72;;;;;;;0.41;100.00;99207.78;5133300;28;20051;-61
2022/04/11 00:03:08;;;;;;;10.73;4.32;;;;;;;0.42;100.00;99220.16;5133222;27;20050;-62
2022/04/11 00:05:35;;;;;;;13.48;4.18;;;;;;;0.43;100.00;99219.06;5133138;28;20552;-61
2022/04/11 00:08:01;;;;;;;9.00;4.05;;;;;;;0.40;100.00;99219.66;5133274;27;20047;-62
2022/04/11 00:10:27;;;;;;;10.13;4.68;;;;;;;0.39;100.00;99220.75;5132968;27;20051;-62
2022/04/11 00:13:01;;;;;;;11.73;5.38;;;;;;;0.40;100.00;99229.63;5133485;27;20070;-62
2022/04/11 00:15:27;;;;;;;;;;;;;;;0.44;100.00;99231.44;5133727;28;20533;-61
2022/04/11 00:17:54;;;;;;;9.70;4.32;;;;;;;0.52;100.00;99234.56;5133300;27;19971;-62
2022/04/11 00:20:20;;;;;;;9.88;5.32;;;;;;;0.49;100.00;99235.16;5133025;28;20058;-63
2022/04/11 00:22:46;;;;;;;10.32;4.93;;;;;;;0.50;100.00;99237.56;5133083;27;20043;-61
2022/04/11 00:25:12;;;;;;;9.13;4.15;;;;;;;0.41;100.00;99234.75;5132795;27;20061;-61
2022/04/11 00:27:38;;;;;;;7.85;4.45;;;;;;;0.39;100.00;99241.50;5132920;27;20043;-62
2022/04/11 00:30:06;;;;;;;7.45;4.13;;;;;;;0.28;100.00;99234.69;5132544;27;20047;-62
2022/04/11 00:32:39;;;;;;;8.35;4.20;;;;;;;0.25;100.00;99241.47;5132828;28;20051;-62
2022/04/11 00:35:08;;;;;;;12.02;4.75;;;;;;;0.25;100.00;99248.78;5131790;27;20047;-61
2022/04/11 00:37:34;;;;;;;11.30;5.15;;;;;;;0.19;100.00;99251.53;5132711;28;20047;-61
2022/04/11 00:40:01;;;;;;;9.98;4.57;;;;;;;0.26;100.00;99251.16;5133076;28;20106;-62
2022/04/11 00:42:28;;;;;;;6.38;4.30;;;;;;;0.23;100.00;99257.13;5132650;28;20049;-62
2022/04/11 00:44:54;;;;;;;6.32;3.72;;;;;;;0.20;100.00;99269.34;5133166;27;20438;-62
2022/04/11 00:47:21;;;;;;;17.15;4.88;;;;;;;0.21;100.00;99262.03;5132965;27;20051;-62
2022/04/11 00:49:47;;;;;;;16.27;4.97;;;;;;;0.16;100.00;99267.50;5132344;27;20111;-61
2022/04/11 00:52:15;;;;;;;11.27;4.68;;;;;;;0.20;100.00;99268.50;5132650;27;20058;-62
2022/04/11 00:54:42;;;;;;;17.65;5.30;;;;;;;0.15;100.00;99272.09;5132543;28;20531;-61
2022/04/11 00:57:10;;;;;;;12.27;5.00;;;;;;;0.16;100.00;99276.38;5132306;27;20054;-61
2022/04/11 00:59:37;;;;;;;12.63;4.90;;;;;;;0.10;100.00;99282.97;5132315;28;20198;-62
2022/04/11 01:02:05;;;;;;;12.95;5.35;;;;;;;0.07;100.00;99283.56;5132501;27;20054;-62
2022/04/11 01:04:32;;;;;;;10.68;4.35;;;;;;;-0.02;100.00;99280.69;5132141;28;20528;-61
2022/04/11 01:06:58;;;;;;;9.23;4.63;;;;;;;-0.09;100.00;99271.38;5132497;28;20051;-62
2022/04/11 01:09:25;;;;;;;9.23;5.20;;;;;;;-0.11;100.00;99285.16;5132185;27;20097;-62
2022/04/11 01:11:52;;;;;;;10.23;4.25;;;;;;;-0.17;100.00;99280.91;5132475;27;20047;-62
2022/04/11 01:14:18;;;;;;;10.48;4.53;;;;;;;-0.14;100.00;99272.25;5132257;27;20108;-61
2022/04/11 01:16:48;;;;;;;11.73;5.13;;;;;;;-0.14;100.00;99279.53;5132465;28;20047;-62
2022/04/11 01:19:14;;;;;;;16.77;4.35;;;;;;;-0.17;100.00;99277.41;5131967;27;20058;-61
2022/04/11 01:21:41;;;;;;;8.30;4.88;;;;;;;-0.16;100.00;99292.50;5131866;28;20096;-61
2022/04/11 01:24:07;;;;;;;8.95;4.88;;;;;;;-0.20;100.00;99288.78;5131947;27;20496;-61
2022/04/11 01:26:35;;;;;;;13.73;5.00;;;;;;;-0.23;100.00;99287.50;5132124;27;20051;-61
2022/04/11 01:29:04;;;;;;;10.65;5.25;;;;;;;-0.28;100.00;99280.25;5131921;27;20100;-62
2022/04/11 01:31:30;;;;;;;13.77;5.72;;;;;;;-0.30;100.00;99276.25;5131881;28;20407;-62
2022/04/11 01:33:57;;;;;;;8.57;4.75;;;;;;;-0.40;100.00;99277.22;5131935;27;20081;-62
2022/04/11 01:36:23;;;;;;;13.18;4.35;;;;;;;-0.45;100.00;99274.56;5131637;28;20058;-61
2022/04/11 01:38:50;;;;;;;10.77;5.30;;;;;;;-0.43;100.00;99277.78;5131992;27;20047;-62
2022/04/11 01:41:16;;;;;;;11.20;4.85;;;;;;;-0.43;100.00;99272.41;5131628;28;20058;-62
2022/04/11 01:43:45;;;;;;;9.68;5.60;;;;;;;-0.40;100.00;99276.38;5131864;28;20047;-61
2022/04/11 01:46:11;;;;;;;8.90;4.38;;;;;;;-0.43;100.00;99274.25;5130969;27;20054;-62
2022/04/11 01:48:37;;;;;;;10.93;5.32;;;;;;;-0.50;100.00;99275.44;5131449;28;20055;-62
2022/04/11 01:51:04;;;;;;;11.88;5.07;;;;;;;-0.48;100.00;99270.56;5131833;28;20073;-61
2022/04/11 01:53:30;;;;;;;12.10;6.05;;;;;;;-0.51;100.00;99281.09;5131620;28;20055;-62
2022/04/11 01:55:57;;;;;;;17.52;6.97;;;;;;;-0.49;100.00;99276.25;5131687;27;20051;-62
2022/04/11 01:58:24;;;;;;;15.45;7.05;;;;;;;-0.46;100.00;99280.25;5131070;27;20504;-62
2022/04/11 02:00:50;;;;;;;16.83;6.07;;;;;;;-0.48;100.00;99277.84;5132044;28;20541;-62
2022/04/11 02:03:16;;;;;;;11.50;5.55;;;;;;;-0.43;100.00;99272.41;5131540;27;20046;-62
2022/04/11 02:05:43;;;;;;;13.13;5.88;;;;;;;-0.51;100.00;99273.03;5131545;27;20051;-62
2022/04/11 02:08:10;;;;;;;10.13;6.05;;;;;;;-0.48;100.00;99275.13;5131160;28;20047;-61
2022/04/11 02:10:37;;;;;;;10.20;5.32;;;;;;;-0.51;100.00;99270.34;5131445;28;20137;-62
2022/04/11 02:13:05;;;;;;;18.75;5.85;;;;;;;-0.43;100.00;99268.88;5131120;27;20138;-62
2022/04/11 02:15:32;;;;;;;13.77;5.97;;;;;;;-0.37;100.00;99271.22;5131030;27;20047;-62
2022/04/11 02:17:58;;;;;;;17.65;5.63;;;;;;;-0.36;100.00;99272.84;5131543;27;20054;-62
2022/04/11 02:20:24;;;;;;;11.25;5.13;;;;;;;-0.33;100.00;99266.06;5130947;28;20422;-62
2022/04/11 02:22:52;;;;;;;8.18;5.40;;;;;;;-0.33;100.00;99261.47;5131310;27;20108;-62
2022/04/11 02:25:21;;;;;;;12.45;5.53;;;;;;;-0.31;100.00;99269.25;5130804;28;20073;-62
2022/04/11 02:27:48;;;;;;;12.05;5.70;;;;;;;-0.28;100.00;99271.38;5131134;27;20568;-62
2022/04/11 02:30:16;;;;;;;10.73;6.20;;;;;;;-0.21;100.00;99269.13;5131033;27;20478;-62
2022/04/11 02:32:43;;;;;;;16.90;6.85;;;;;;;-0.14;100.00;99266.84;5131263;28;20043;-63
2022/04/11 02:35:10;;;;;;;15.45;5.85;;;;;;;-0.10;100.00;99277.84;5130948;28;20498;-62
2022/04/11 02:37:36;;;;;;;16.13;5.97;;;;;;;-0.05;100.00;99275.91;5131309;27;20051;-62
2022/04/11 02:40:05;;;;;;;18.52;7.50;;;;;;;-0.05;100.00;99283.97;5130915;27;20095;-63
2022/04/11 02:42:31;;;;;;;15.52;6.75;;;;;;;0.00;100.00;99280.44;5131139;28;20086;-62
2022/04/11 02:44:57;;;;;;;12.25;6.53;;;;;;;-0.08;100.00;99284.56;5130879;27;20100;-63
2022/04/11 02:47:24;;;;;;;15.27;6.15;;;;;;;-0.09;100.00;99288.34;5130874;28;20051;-62
2022/04/11 02:49:50;;;;;;;15.98;7.00;;;;;;;-0.04;100.00;99288.28;5130876;27;20110;-62
2022/04/11 02:52:17;;;;;;;17.33;7.63;;;;;;;-0.08;100.00;99289.94;5130902;28;20043;-62
2022/04/11 02:54:43;;;;;;;12.13;5.93;;;;;;;-0.08;100.00;99292.66;5130650;27;20520;-63
2022/04/11 02:57:09;;;;;;;12.15;6.05;;;;;;;-0.08;100.00;99295.34;5131178;27;20058;-62
2022/04/11 02:59:35;;;;;;;16.08;6.28;;;;;;;-0.02;100.00;99294.19;5134096;27;20089;-62
2022/04/11 03:02:03;;;;;;;14.90;6.68;;;;;;;-0.01;100.00;99294.97;5134028;27;20043;-62
2022/04/11 03:04:30;;;;;;;14.10;6.07;;;;;;;-0.04;100.00;99293.66;5134392;27;20104;-62
2022/04/11 03:06:57;;;;;;;11.50;5.53;;;;;;;-0.01;100.00;99295.78;5134130;27;20055;-63
2022/04/11 03:09:23;;;;;;;14.93;6.22;;;;;;;-0.04;100.00;99304.44;5134131;27;20047;-62
2022/04/11 03:11:50;;;;;;;12.80;5.82;;;;;;;-0.01;100.00;99300.38;5133910;27;20051;-63
2022/04/11 03:14:16;;;;;;;12.75;5.38;;;;;;;-0.05;100.00;99305.53;5133969;27;20055;-62
2022/04/11 03:16:42;;;;;;;16.77;6.07;;;;;;;-0.05;100.00;99310.13;5134015;27;20055;-62
2022/04/11 03:19:09;;;;;;;16.63;5.95;;;;;;;-0.06;100.00;99306.66;5134002;28;20055;-62
2022/04/11 03:21:35;;;;;;;9.07;5.57;;;;;;;-0.08;100.00;99311.50;5133920;28;20054;-63
2022/04/11 03:24:02;;;;;;;14.70;7.05;;;;;;;-0.02;100.00;99306.84;5133718;28;20074;-63
2022/04/11 03:26:28;;;;;;;13.23;6.25;;;;;;;-0.04;100.00;99312.53;5134194;27;20047;-62
2022/04/11 03:28:54;;;;;;;11.07;5.80;;;;;;;-0.05;100.00;99308.25;5134037;28;20100;-62
2022/04/11 03:31:21;;;;;;;18.48;6.07;;;;;;;-0.03;100.00;99310.66;5134210;28;20520;-62
2022/04/11 03:33:47;;;;;;;9.50;5.80;;;;;;;-0.01;100.00;99306.56;5133643;27;20050;-62
2022/04/11 03:36:13;;;;;;;16.10;6.45;;;;;;;0.05;100.00;99317.28;5133905;27;20043;-62
2022/04/11 03:38:40;;;;;;;15.35;5.28;;;;;;;0.08;100.00;99312.09;5133629;27;20051;-62
2022/04/11 03:41:06;;;;;;;16.27;7.78;;;;;;;0.21;100.00;99318.66;5133702;27;20394;-62
2022/04/11 03:43:32;;;;;;;16.55;6.78;;;;;;;0.30;100.00;99325.00;5133519;27;20047;-63
2022/04/11 03:45:58;;;;;;;17.83;6.47;;;;;;;0.35;100.00;99319.50;5133480;28;20562;-62
2022/04/11 03:48:25;;;;;;;20.58;6.68;;;;;;;0.57;100.00;99320.81;5133435;27;20055;-62
2022/04/11 03:50:51;;;;;;;10.00;5.57;;;;;;;0.97;100.00;99329.28;5133514;28;20051;-63
2022/04/11 03:53:17;;;;;;;15.90;6.75;;;;;;;1.15;100.00;99331.94;5133668;27;20556;-62
2022/04/11 03:55:44;;;;;;;13.38;6.10;;;;;;;1.13;100.00;99344.13;5133633;27;20081;-62
2022/04/11 03:58:10;;;;;;;9.90;4.95;;;;;;;1.24;100.00;99334.75;5133238;27;20062;-63
2022/04/11 04:00:37;;;;;;;14.00;6.43;;;;;;;1.30;100.00;99330.03;5133801;28;20051;-63
2022/04/11 04:03:06;;;;;;;13.13;6.75;;;;;;;1.53;100.00;99323.63;5133628;28;20498;-62
2022/04/11 04:05:33;;;;;;;14.88;5.90;;;;;;;1.75;100.00;99322.13;5133442;27;20519;-62
2022/04/11 04:07:59;;;;;;;12.60;5.22;;;;;;;1.82;100.00;99298.97;5132909;27;20586;-62
2022/04/11 04:10:26;;;;;;;10.52;6.00;;;;;;;1.78;100.00;99270.16;5133232;27;20092;-62
2022/04/11 04:12:57;;;;;;;12.80;5.95;;;;;;;1.72;100.00;99250.56;5132952;28;20047;-62
2022/04/11 04:15:23;;;;;;;14.20;5.82;;;;;;;1.74;100.00;99239.44;5133029;27;20055;-62
2022/04/11 04:17:52;;;;;;;13.02;6.47;;;;;;;1.80;100.00;99239.03;5133101;28;20047;-62
2022/04/11 04:20:18;;;;;;;14.85;5.90;;;;;;;1.85;100.00;99230.78;5133083;27;20103;-62
2022/04/11 04:22:45;;;;;;;21.52;11.15;;;;;;;1.97;100.00;99238.38;5132950;27;20047;-62
2022/04/11 04:25:11;;;;;;;35.70;15.70;;;;;;;2.02;100.00;99227.44;5133405;27;20047;-62
2022/04/11 04:27:37;;;;;;;39.78;18.45;;;;;;;2.08;100.00;99220.00;5132774;27;20461;-62
2022/04/11 04:30:06;;;;;;;27.85;14.70;;;;;;;2.20;100.00;99222.97;5132991;28;20498;-63
2022/04/11 04:32:32;;;;;;;26.77;11.77;;;;;;;2.28;100.00;99194.38;5132018;27;20502;-62
2022/04/11 04:34:58;;;;;;;23.52;10.60;;;;;;;2.33;100.00;99186.94;5132604;27;20498;-62
2022/04/11 04:37:24;;;;;;;16.48;7.35;;;;;;;2.40;100.00;99172.13;5132778;27;20471;-62
2022/04/11 04:39:50;;;;;;;17.92;8.20;;;;;;;2.47;100.00;99151.66;5132579;27;20051;-63
2022/04/11 04:42:20;;;;;;;15.85;7.13;;;;;;;2.67;100.00;99139.50;5132419;28;20058;-62
2022/04/11 04:44:46;;;;;;;11.98;5.60;;;;;;;2.85;100.00;99120.59;5132608;28;20108;-63
2022/04/11 04:47:15;;;;;;;10.50;5.30;;;;;;;3.04;100.00;99077.78;5132348;27;20044;-62
2022/04/11 04:49:41;;;;;;;12.88;4.85;;;;;;;3.28;100.00;99037.47;5132329;27;20096;-62
2022/04/11 04:52:08;;;;;;;8.95;4.50;;;;;;;3.64;100.00;98973.97;5132680;27;20100;-63
2022/04/11 04:54:35;;;;;;;11.82;5.10;;;;;;;3.98;100.00;98869.19;5131999;28;20051;-62
2022/04/11 04:57:01;;;;;;;11.75;5.43;;;;;;;4.28;100.00;98744.34;5132357;27;20054;-63
2022/04/11 04:59:28;;;;;;;10.30;5.32;;;;;;;4.64;100.00;98635.84;5131854;27;20080;-63
2022/04/11 05:01:54;;;;;;;11.57;6.05;;;;;;;4.93;100.00;98477.31;5132282;27;20471;-62
2022/04/11 05:04:21;;;;;;;18.40;6.38;;;;;;;5.42;100.00;98406.44;5132252;28;20053;-63
2022/04/11 05:06:48;;;;;;;10.85;4.80;;;;;;;5.84;100.00;98278.09;5131912;28;20066;-63
2022/04/11 05:09:14;;;;;;;13.35;5.28;;;;;;;6.05;100.00;98171.66;5131797;28;20047;-63
2022/04/11 05:11:40;;;;;;;9.68;5.32;;;;;;;6.28;100.00;98103.69;5131943;28;20051;-63
2022/04/11 05:14:07;;;;;;;13.65;4.63;;;;;;;6.50;100.00;98041.44;5131874;28;20533;-63
2022/04/11 05:16:33;;;;;;;10.27;4.75;;;;;;;6.98;100.00;98031.63;5145384;27;20098;-63
2022/04/11 05:18:59;;;;;;;9.82;4.95;;;;;;;7.40;100.00;98002.56;5144487;27;20430;-61
2022/04/11 05:21:27;;;;;;;13.43;5.07;;;;;;;8.13;100.00;98002.91;5130894;27;20051;-60
2022/04/11 05:23:53;;;;;;;9.68;5.00;;;;;;;8.46;100.00;98012.97;5139183;27;20053;-63
2022/04/11 05:26:19;;;;;;;13.30;5.47;;;;;;;8.67;100.00;98021.31;5131888;28;20043;-60
2022/04/11 05:28:45;;;;;;;10.38;5.25;;;;;;;8.88;100.00;98050.75;5131798;27;20043;-61
2022/04/11 05:31:12;;;;;;;9.88;5.15;;;;;;;9.08;100.00;98064.16;5131066;28;20081;-61
2022/04/11 05:33:38;;;;;;;11.90;5.35;;;;;;;9.12;100.00;98084.88;5131453;27;20050;-62
2022/04/11 05:36:04;;;;;;;10.38;4.40;;;;;;;9.17;100.00;98091.94;5152523;27;20428;-59
2022/04/11 05:38:31;;;;;;;11.75;5.15;;;;;;;9.15;100.00;98094.25;5152392;27;20058;-62
2022/04/11 05:40:58;;;;;;;6.65;5.10;;;;;;;8.89;100.00;98082.38;5143508;27;20054;-63
2022/04/11 05:43:24;;;;;;;12.23;5.38;;;;;;;8.83;100.00;98081.19;5145447;27;20042;-62
2022/04/11 05:45:50;;;;;;;8.23;5.72;;;;;;;8.93;100.00;98074.22;5152306;27;20050;-62
2022/04/11 05:48:16;;;;;;;8.45;5.07;;;;;;;9.38;100.00;98081.09;5152114;27;20046;-60
2022/04/11 05:50:42;;;;;;;59.03;18.55;;;;;;;9.89;100.00;98106.72;5136328;27;20055;-59
2022/04/11 05:53:09;;;;;;;13.57;6.07;;;;;;;10.24;100.00;98136.19;5131367;27;20051;-59
2022/04/11 05:55:36;;;;;;;7.40;4.72;;;;;;;10.36;100.00;98176.97;5134855;27;20369;-59
2022/04/11 05:58:02;;;;;;;13.82;5.22;;;;;;;10.55;100.00;98183.25;5146568;27;20062;-60
2022/04/11 06:00:28;;;;;;;10.18;4.15;;;;;;;10.97;100.00;98214.66;5140582;27;20078;-62
2022/04/11 06:02:55;;;;;;;10.90;4.15;;;;;;;11.18;100.00;98233.88;5152030;27;20050;-60
2022/04/11 06:05:21;;;;;;;9.45;4.85;;;;;;;11.26;100.00;98243.69;5151906;27;20065;-60
2022/04/11 06:07:47;;;;;;;6.25;3.90;;;;;;;11.46;100.00;98257.78;5149079;27;20050;-59
2022/04/11 06:10:13;;;;;;;8.43;4.25;;;;;;;11.29;100.00;98273.06;5151993;27;20493;-61
2022/04/11 06:12:40;;;;;;;11.38;4.50;;;;;;;11.62;100.00;98268.34;5151722;27;20050;-59
2022/04/11 06:15:07;;;;;;;13.55;4.45;;;;;;;12.11;100.00;98290.69;5146350;27;20058;-63
2022/04/11 06:17:33;;;;;;;32.10;10.10;;;;;;;12.54;100.00;98305.06;5131319;28;20425;-60
2022/04/11 06:20:02;;;;;;;11.35;4.28;;;;;;;12.89;100.00;98336.34;5135672;27;20536;-61
2022/04/11 06:22:28;;;;;;;10.68;4.30;;;;;;;13.37;100.00;98355.78;5151635;27;20050;-61
2022/04/11 06:24:59;;;;;;;12.23;4.50;;;;;;;13.77;100.00;98367.28;5151769;27;20046;-68
2022/04/11 06:27:26;;;;;;;7.88;4.15;;;;;;;14.02;100.00;98394.63;5137259;27;20417;-60
2022/04/11 06:29:56;;;;;;;10.00;4.00;;;;;;;14.30;100.00;98409.38;5133349;27;20058;-59
2022/04/11 06:32:25;;;;;;;14.65;3.85;;;;;;;14.43;100.00;98423.41;5131296;27;20047;-64
2022/04/11 06:34:51;;;;;;;6.80;3.70;;;;;;;14.70;100.00;98423.59;5128621;28;20053;-66
2022/04/11 06:37:17;;;;;;;9.30;3.47;;;;;;;15.13;100.00;98428.59;5131091;27;20104;-64
2022/04/11 06:39:44;;;;;;;10.45;4.40;;;;;;;15.46;100.00;98440.78;5130837;28;20065;-63
2022/04/11 06:42:10;;;;;;;8.13;4.03;;;;;;;15.45;100.00;98466.84;5131218;27;20102;-62
2022/04/11 06:44:37;;;;;;;12.68;5.45;;;;;;;15.64;100.00;98468.19;5130755;28;20055;-62
2022/04/11 06:47:04;;;;;;;13.65;5.00;;;;;;;15.63;100.00;98478.47;5130821;27;20051;-60
2022/04/11 06:49:31;;;;;;;9.80;3.55;;;;;;;15.87;100.00;98473.03;5130325;27;20052;-61
2022/04/11 06:51:57;;;;;;;14.60;4.35;;;;;;;15.31;100.00;98484.41;5141211;27;20051;-61
2022/04/11 06:54:23;;;;;;;8.35;4.57;;;;;;;15.45;100.00;98475.91;5150790;27;20366;-62
2022/04/11 06:56:52;;;;;;;5.85;3.20;;;;;;;16.03;100.00;98473.19;5151399;27;20047;-63
2022/04/11 06:59:19;;;;;;;13.57;5.00;;;;;;;16.34;100.00;98486.94;5149782;27;20061;-63
2022/04/11 07:01:45;;;;;;;11.73;5.70;;;;;;;16.53;100.00;98493.72;5141050;27;20051;-63
2022/04/11 07:04:12;;;;;;;10.27;4.55;;;;;;;16.69;100.00;98499.38;5130173;28;20043;-63
2022/04/11 07:06:38;;;;;;;12.65;5.53;;;;;;;16.82;100.00;98510.63;5148391;27;20061;-64
2022/04/11 07:09:04;;;;;;;25.02;15.38;;;;;;;16.72;99.49;98523.44;5150573;27;20421;-63
2022/04/11 07:11:31;;;;;;;10.40;4.05;;;;;;;16.66;100.00;98525.91;5150384;27;20062;-63
2022/04/11 07:13:57;;;;;;;9.73;4.40;;;;;;;16.86;98.03;98533.50;5151051;27;20418;-63
2022/04/11 07:16:24;;;;;;;9.95;4.75;;;;;;;17.07;95.69;98535.13;5131549;27;20047;-63
2022/04/11 07:18:50;;;;;;;7.80;3.83;;;;;;;17.27;96.42;98535.16;5129571;27;20051;-64
2022/04/11 07:21:17;;;;;;;9.98;3.13;;;;;;;17.52;91.96;98540.97;5147892;27;20474;-63
2022/04/11 07:23:44;;;;;;;9.13;3.03;;;;;;;17.73;88.43;98550.84;5150138;27;20428;-63
2022/04/11 07:26:10;;;;;;;8.52;3.72;;;;;;;17.50;89.77;98551.72;5150327;27;20057;-63
2022/04/11 07:28:36;;;;;;;9.20;3.65;;;;;;;17.13;92.31;98552.81;5145575;27;20055;-63
2022/04/11 07:31:03;;;;;;;9.95;4.65;;;;;;;17.47;93.75;98546.25;5137351;27;20055;-63
2022/04/11 07:33:29;;;;;;;11.27;3.90;;;;;;;17.77;93.64;98536.94;5134214;27;20054;-63
2022/04/11 07:35:56;;;;;;;12.25;5.38;;;;;;;17.61;92.22;98549.50;5137680;27;20051;-63
2022/04/11 07:38:23;;;;;;;12.77;4.50;;;;;;;17.75;92.60;98547.63;5138602;27;20058;-63
2022/04/11 07:40:49;;;;;;;10.60;4.13;;;;;;;17.26;92.44;98552.94;5135877;27;20054;-63
2022/04/11 07:43:15;;;;;;;8.65;4.30;;;;;;;16.40;95.16;98549.66;5135619;27;20406;-63
2022/04/11 07:45:41;;;;;;;10.18;4.30;;;;;;;16.79;98.52;98523.34;5145340;27;20053;-63
2022/04/11 07:48:08;;;;;;;8.80;4.97;;;;;;;17.56;94.64;98540.88;5153681;27;20050;-63
2022/04/11 07:50:34;;;;;;;9.82;4.18;;;;;;;17.09;92.73;98554.84;5138046;27;20466;-63
2022/04/11 07:53:01;;;;;;;7.63;3.47;;;;;;;17.06;92.04;98542.66;5132633;27;20066;-63
2022/04/11 07:55:28;;;;;;;4.45;2.42;;;;;;;16.87;93.49;98541.41;5146249;27;20046;-63
2022/04/11 07:57:54;;;;;;;8.02;3.20;;;;;;;16.98;94.48;98538.44;5151586;27;20433;-64
2022/04/11 08:00:21;;;;;;;10.93;4.60;;;;;;;17.35;94.53;98537.34;5152896;27;20055;-63
2022/04/11 08:02:50;;;;;;;8.65;3.92;;;;;;;17.40;94.98;98538.84;5153902;27;20051;-63
2022/04/11 08:05:19;;;;;;;11.25;4.95;;;;;;;17.87;94.18;98542.25;5152812;27;20047;-63
2022/04/11 08:07:45;;;;;;;11.93;4.70;;;;;;;18.23;90.00;98551.78;5133200;27;20050;-63
2022/04/11 08:10:11;;;;;;;9.02;4.57;;;;;;;17.29;93.58;98550.13;5132613;28;20100;-63
2022/04/11 08:12:38;;;;;;;10.18;4.35;;;;;;;15.82;94.54;98567.47;5136158;27;20489;-62
2022/04/11 08:15:06;;;;;;;9.75;4.00;;;;;;;16.16;98.97;98537.78;5141151;27;20053;-63
2022/04/11 08:17:32;;;;;;;17.30;3.67;;;;;;;16.65;95.94;98545.69;5147182;27;20057;-62
2022/04/11 08:19:58;;;;;;;5.65;2.97;;;;;;;17.32;93.64;98548.50;5139778;27;20050;-63
2022/04/11 08:22:24;;;;;;;8.25;3.47;;;;;;;17.90;89.57;98562.81;5141465;27;20050;-63
2022/04/11 08:24:51;;;;;;;6.82;3.65;;;;;;;18.51;86.37;98569.75;5141641;27;20505;-63
2022/04/11 08:27:17;;;;;;;13.10;4.15;;;;;;;19.17;87.23;98565.75;5132549;28;20561;-63
2022/04/11 08:29:44;;;;;;;8.48;3.30;;;;;;;19.48;81.94;98591.09;5132815;28;20058;-63
2022/04/11 08:32:12;;;;;;;8.77;4.70;;;;;;;19.78;79.37;98588.34;5135992;27;20053;-63
2022/04/11 08:34:38;;;;;;;7.70;4.53;;;;;;;19.95;81.13;98589.81;5147946;27;20133;-63
2022/04/11 08:37:04;;;;;;;9.18;3.88;;;;;;;19.41;76.61;98596.84;5137773;27;20050;-63
2022/04/11 08:39:31;;;;;;;8.30;3.80;;;;;;;18.96;78.69;98605.16;5152903;27;20059;-63
2022/04/11 08:42:00;;;;;;;13.70;3.47;;;;;;;18.94;78.74;98605.63;5150998;27;20050;-62
2022/04/11 08:44:28;;;;;;;6.85;3.70;;;;;;;18.86;78.33;98606.22;5153221;27;20080;-62
2022/04/11 08:47:00;;;;;;;8.20;3.30;;;;;;;18.94;77.89;98611.16;5145434;27;20398;-62
2022/04/11 08:49:28;;;;;;;6.32;3.35;;;;;;;18.64;77.00;98609.50;5136337;27;20047;-61
2022/04/11 08:51:54;;;;;;;11.27;3.67;;;;;;;18.53;77.65;98609.75;5142354;27;20488;-62
2022/04/11 08:54:20;;;;;;;9.80;5.20;;;;;;;18.85;80.69;98591.56;5131709;27;20418;-60
2022/04/11 08:56:47;;;;;;;8.80;4.10;;;;;;;18.43;80.23;98599.69;5131895;27;20073;-64
2022/04/11 08:59:14;;;;;;;7.53;3.38;;;;;;;17.57;81.95;98604.22;5131936;28;20524;-66
2022/04/11 09:01:40;;;;;;;9.07;3.83;;;;;;;17.38;84.08;98582.81;5141126;27;20054;-66
2022/04/11 09:04:09;;;;;;;5.95;3.40;;;;;;;16.39;87.37;98594.31;5152735;27;20047;-62
2022/04/11 09:06:36;;;;;;;7.07;2.97;;;;;;;15.37;93.18;98579.41;5152500;27;20421;-59
2022/04/11 09:09:04;;;;;;;8.15;3.75;;;;;;;14.36;98.08;98565.69;5152080;27;20085;-60
2022/04/11 09:11:31;;;;;;;6.90;3.28;;;;;;;13.75;100.00;98537.69;5152687;27;20050;-60
2022/04/11 09:14:00;;;;;;;4.75;2.40;;;;;;;14.31;100.00;98524.75;5152470;27;20046;-60
2022/04/11 09:16:27;;;;;;;4.78;3.33;;;;;;;15.20;98.49;98541.72;5152482;27;20058;-60
2022/04/11 09:18:56;;;;;;;5.85;2.78;;;;;;;16.06;95.47;98555.31;5147560;27;20058;-61
2022/04/11 09:21:24;;;;;;;9.48;3.38;;;;;;;16.16;88.73;98587.56;5133581;27;20050;-61
2022/04/11 09:24:10;;;;;;;10.48;2.83;;;;;;;15.38;86.13;98600.31;5132387;27;20050;-60
2022/04/11 09:26:39;;;;;;;8.10;4.03;;;;;;;15.24;89.29;98581.91;5140707;27;20047;-60
2022/04/11 09:29:05;;;;;;;6.45;2.35;;;;;;;15.72;84.41;98588.50;5142458;27;20120;-61
2022/04/11 09:31:32;;;;;;;7.50;2.60;;;;;;;15.79;81.11;98599.47;5151883;27;20480;-61
2022/04/11 09:34:12;;;;;;;7.47;3.33;;;;;;;15.91;79.17;98598.94;5148330;27;20452;-61
2022/04/11 09:36:47;;;;;;;11.60;2.90;;;;;;;16.12;82.23;98603.38;5129254;28;20520;-61
2022/04/11 09:39:14;;;;;;;6.25;3.38;;;;;;;15.71;80.21;98611.81;5124255;27;20054;-60
2022/04/11 09:41:45;;;;;;;6.28;3.03;;;;;;;15.25;81.38;98615.81;5143679;27;20046;-60
2022/04/11 09:44:25;;;;;;;9.98;3.60;;;;;;;15.29;83.61;98597.22;5133977;27;20078;-59
2022/04/11 09:46:52;;;;;;;5.65;2.28;;;;;;;15.63;86.41;98577.94;5139219;27;20061;-59
2022/04/11 09:49:19;;;;;;;4.80;2.38;;;;;;;16.42;84.39;98574.91;5138591;27;20150;-60
2022/04/11 09:52:06;;;;;;;10.77;3.65;;;;;;;16.82;82.68;98577.84;5143181;27;20103;-61
2022/04/11 09:54:33;;;;;;;7.40;3.30;;;;;;;16.47;84.65;98574.44;5130682;28;20043;-61
2022/04/11 09:57:00;;;;;;;5.25;2.38;;;;;;;15.88;82.12;98590.69;5138780;27;20051;-60
2022/04/11 09:59:27;;;;;;;8.73;2.63;;;;;;;15.18;85.05;98591.03;5143300;27;20059;-61
2022/04/11 10:01:56;;;;;;;7.50;3.33;;;;;;;14.07;88.97;98578.09;5131910;27;20107;-60
2022/04/11 10:04:22;;;;;;;6.15;2.22;;;;;;;14.29;94.90;98556.66;5151405;27;20090;-60
2022/04/11 10:06:49;;;;;;;6.38;2.50;;;;;;;14.79;88.53;98575.63;5151248;27;20096;-61
2022/04/11 10:09:19;;;;;;;5.43;2.22;;;;;;;14.99;84.70;98578.59;5151206;27;20058;-61
2022/04/11 10:11:45;;;;;;;6.13;3.33;;;;;;;14.54;87.63;98573.84;5151581;27;20055;-61
2022/04/11 10:14:15;;;;;;;5.50;2.00;;;;;;;13.61;89.64;98573.56;5151269;27;20179;-61
2022/04/11 10:16:43;;;;;;;6.30;2.20;;;;;;;12.98;94.88;98556.81;5151369;27;20047;-59
2022/04/11 10:19:10;;;;;;;5.45;2.33;;;;;;;12.57;100.00;98543.47;5151377;27;20047;-60
2022/04/11 10:21:40;;;;;;;4.18;2.20;;;;;;;11.71;100.00;98509.59;5143032;27;20050;-59
2022/04/11 10:24:13;;;;;;;11.20;2.58;;;;;;;11.57;100.00;98484.84;5138084;27;20370;-59
2022/04/11 10:26:52;;;;;;;5.20;2.08;;;;;;;11.49;100.00;98486.75;5134610;27;20058;-59
2022/04/11 10:29:31;;;;;;;3.75;2.08;;;;;;;11.48;100.00;98479.72;5146757;27;20047;-59
2022/04/11 10:32:05;;;;;;;5.55;2.28;;;;;;;11.50;100.00;98450.69;5149184;27;20091;-59
2022/04/11 10:34:46;;;;;;;;;;;;;;;11.34;100.00;98468.69;5139317;27;20524;-58
2022/04/11 10:37:12;;;;;;;7.53;1.75;;;;;;;11.07;100.00;98499.94;5133580;27;19938;-60
2022/04/11 10:39:39;;;;;;;4.22;1.70;;;;;;;11.15;100.00;98499.97;5143223;27;20102;-59
2022/04/11 10:42:13;;;;;;;2.83;2.00;;;;;;;11.39;100.00;98493.00;5142153;27;20592;-59
2022/04/11 10:44:42;;;;;;;4.13;1.75;;;;;;;11.58;100.00;98489.94;5137262;27;20065;-60
2022/04/11 10:47:35;;;;;;;3.65;1.60;;;;;;;11.80;100.00;98482.53;5130081;28;20058;-59
2022/04/11 10:50:20;;;;;;;5.90;2.45;;;;;;;11.89;100.00;98491.19;5086047;27;20055;-60
2022/04/11 10:52:52;;;;;;;7.47;2.42;;;;;;;11.83;100.00;98489.19;5143071;27;20512;-59
2022/04/11 10:55:19;;;;;;;8.27;1.80;;;;;;;11.78;100.00;98479.41;5142507;27;20053;-62
2022/04/11 10:57:48;;;;;;;4.95;2.20;;;;;;;11.64;100.00;98479.38;5137433;27;20490;-62
2022/04/11 11:00:17;;;;;;;7.05;2.30;;;;;;;11.58;100.00;98461.69;5134074;27;20043;-64
2022/04/11 11:03:13;;;;;;;7.63;2.17;;;;;;;11.28;100.00;98463.56;5139801;27;20055;-64
2022/04/11 11:05:41;;;;;;;9.10;2.10;;;;;;;11.01;100.00;98470.50;5147736;27;20053;-62
2022/04/11 11:08:32;;;;;;;5.82;2.22;;;;;;;11.06;100.00;98434.47;5149155;27;20042;-63
2022/04/11 11:11:00;;;;;;;5.93;2.22;;;;;;;11.42;100.00;98415.38;5113552;27;20047;-62
2022/04/11 11:13:30;;;;;;;8.55;2.58;;;;;;;11.26;100.00;98426.69;5150691;27;20047;-61
2022/04/11 11:15:58;;;;;;;4.32;1.80;;;;;;;11.22;100.00;98417.69;5138719;27;20102;-64
2022/04/11 11:18:25;;;;;;;6.28;2.47;;;;;;;11.04;100.00;98445.06;5131297;27;20149;-62
2022/04/11 11:20:53;;;;;;;4.95;1.92;;;;;;;10.89;100.00;98446.94;5134139;27;20788;-62
2022/04/11 11:23:26;;;;;;;4.05;1.92;;;;;;;10.87;100.00;98426.56;5134201;27;20463;-61
2022/04/11 11:25:53;;;;;;;3.85;1.63;;;;;;;11.02;100.00;98450.13;5140992;27;20050;-62
2022/04/11 11:28:20;;;;;;;5.28;1.70;;;;;;;11.11;100.00;98452.53;5147006;27;20047;-64